Time;durP1;ratioP1;P1;durP2;ratioP2;P2;SDS_P1;SDS_P2;PMS_P1;PMS_P2;Temp;Humidity;BMP_temperature;BMP_pressure;BME280_temperature;BME280_humidity;BME280_pressure;Samples;Min_cycle;Max_cycle;Signal;HPM_P1;HPM_P2
2023/09/08 00:00:52;;;;;;;7.95;5.38;;;;;;;20.96;74.48;101720.66;5056686;27;97782;-27
2023/09/08 00:03:17;;;;;;;9.43;5.47;;;;;;;20.93;74.96;101718.19;5056827;27;96672;-27
2023/09/08 00:05:42;;;;;;;10.32;5.70;;;;;;;20.92;75.16;101721.94;5056330;27;96928;-28
2023/09/08 00:08:08;;;;;;;9.55;5.57;;;;;;;20.85;75.80;101718.00;5056142;27;97851;-27
2023/09/08 00:10:33;;;;;;;11.60;5.85;;;;;;;20.86;75.74;101728.88;5056367;27;97856;-27
2023/09/08 00:12:58;;;;;;;8.68;5.57;;;;;;;20.83;75.81;101726.38;5056769;27;96748;-27
2023/09/08 00:15:24;;;;;;;8.43;5.43;;;;;;;20.77;75.67;101729.72;5056618;27;96774;-28
2023/09/08 00:17:49;;;;;;;7.68;5.03;;;;;;;20.76;75.41;101728.84;5056568;27;97333;-27
2023/09/08 00:20:15;;;;;;;10.43;6.18;;;;;;;20.73;75.11;101726.34;5056315;27;97381;-27
2023/09/08 00:22:40;;;;;;;8.15;5.65;;;;;;;20.69;74.65;101729.53;5056269;27;96572;-27
2023/09/08 00:25:06;;;;;;;9.80;5.82;;;;;;;20.67;75.05;101729.69;5056955;27;96846;-27
2023/09/08 00:27:31;;;;;;;12.55;5.85;;;;;;;20.65;75.68;101728.94;5055921;27;99427;-28
2023/09/08 00:29:57;;;;;;;9.55;5.65;;;;;;;20.67;75.97;101728.81;5056020;27;97810;-27
2023/09/08 00:32:23;;;;;;;8.43;5.20;;;;;;;20.64;75.28;101735.47;5056134;27;96523;-27
2023/09/08 00:34:48;;;;;;;9.50;6.00;;;;;;;20.61;75.72;101732.13;5056493;27;96778;-27
2023/09/08 00:37:13;;;;;;;10.38;6.05;;;;;;;20.56;75.47;101727.88;5055740;27;98929;-28
2023/09/08 00:39:39;;;;;;;12.15;6.30;;;;;;;20.51;75.54;101718.28;5056003;27;97226;-27
2023/09/08 00:42:06;;;;;;;9.73;6.05;;;;;;;20.54;76.08;101732.63;5055311;27;96828;-27
2023/09/08 00:44:32;;;;;;;9.70;5.85;;;;;;;20.51;76.06;101726.53;5055812;27;96648;-27
2023/09/08 00:46:57;;;;;;;12.25;5.60;;;;;;;20.47;75.70;101723.19;5055943;27;97837;-27
2023/09/08 00:49:23;;;;;;;9.95;6.40;;;;;;;20.47;75.94;101731.44;5037860;27;99373;-27
2023/09/08 00:51:48;;;;;;;10.75;6.13;;;;;;;20.43;76.46;101726.38;5055981;27;96476;-27
2023/09/08 00:54:14;;;;;;;8.30;5.40;;;;;;;20.43;76.42;101731.88;5056236;27;96700;-28
2023/09/08 00:56:40;;;;;;;7.75;5.47;;;;;;;20.37;76.95;101733.28;5055328;27;97496;-27
2023/09/08 00:59:05;;;;;;;10.43;5.57;;;;;;;20.34;76.85;101737.16;5055162;27;99602;-27
2023/09/08 01:01:31;;;;;;;8.77;5.50;;;;;;;20.35;76.42;101732.53;5055882;27;96532;-27
2023/09/08 01:03:57;;;;;;;10.30;6.03;;;;;;;20.30;76.81;101726.56;5037526;27;96941;-29
2023/09/08 01:06:23;;;;;;;9.18;5.82;;;;;;;20.24;76.49;101725.25;5055630;27;98688;-28
2023/09/08 01:08:50;;;;;;;10.25;6.13;;;;;;;20.25;77.02;101731.63;5036993;27;101217;-28
2023/09/08 01:11:16;;;;;;;10.70;5.93;;;;;;;20.22;76.87;101734.66;5037298;27;97326;-27
2023/09/08 01:13:43;;;;;;;9.73;5.88;;;;;;;20.18;77.24;101714.78;5055940;27;96646;-28
2023/09/08 01:16:08;;;;;;;10.25;5.97;;;;;;;20.16;77.59;101727.78;5036117;27;101084;-28
2023/09/08 01:18:34;;;;;;;8.63;5.40;;;;;;;20.08;77.93;101724.84;5055289;27;97966;-27
2023/09/08 01:21:14;;;;;;;8.60;5.68;;;;;;;20.11;77.87;101733.69;5054967;27;96584;-27
2023/09/08 01:24:09;;;;;;;10.68;5.28;;;;;;;20.08;78.67;101735.84;5055439;27;96861;-27
2023/09/08 01:26:40;;;;;;;9.68;5.80;;;;;;;20.02;78.65;101737.28;5055408;27;98098;-29
2023/09/08 01:29:06;;;;;;;11.00;5.70;;;;;;;20.01;78.02;101738.25;5037019;27;101074;-27
2023/09/08 01:31:32;;;;;;;13.75;6.32;;;;;;;19.99;77.96;101736.66;5037246;27;96466;-29
2023/09/08 01:34:01;;;;;;;9.10;5.70;;;;;;;20.00;77.75;101733.78;5055403;27;96836;-27
2023/09/08 01:36:26;;;;;;;11.73;6.50;;;;;;;19.93;78.09;101730.69;5036611;27;99031;-28
2023/09/08 01:38:52;;;;;;;9.82;5.80;;;;;;;19.90;77.85;101733.72;5055333;27;97227;-27
2023/09/08 01:41:17;;;;;;;9.98;6.00;;;;;;;19.88;78.06;101730.22;5054892;27;96650;-27
2023/09/08 01:43:42;;;;;;;10.23;6.25;;;;;;;19.87;77.99;101731.22;5054995;27;96771;-28
2023/09/08 01:46:08;;;;;;;11.00;5.78;;;;;;;19.84;78.46;101730.63;5054574;27;97929;-28
2023/09/08 01:48:33;;;;;;;9.65;5.72;;;;;;;19.81;78.17;101730.91;5055001;27;97806;-28
2023/09/08 01:50:58;;;;;;;9.98;5.82;;;;;;;19.78;78.50;101729.25;5055081;27;96651;-28
2023/09/08 01:53:24;;;;;;;10.35;6.07;;;;;;;19.77;78.96;101729.41;5055198;27;96808;-27
2023/09/08 01:55:49;;;;;;;11.02;5.78;;;;;;;19.71;78.66;101720.69;5054944;27;97385;-27
2023/09/08 01:58:14;;;;;;;9.15;5.97;;;;;;;19.73;78.49;101720.53;5054750;27;97770;-27
2023/09/08 02:00:40;;;;;;;10.73;6.20;;;;;;;19.73;78.19;101723.28;5055117;27;96742;-27
2023/09/08 02:03:05;;;;;;;9.55;5.82;;;;;;;19.70;78.89;101723.56;5055348;27;96958;-28
2023/09/08 02:05:31;;;;;;;10.52;5.95;;;;;;;19.66;79.36;101722.94;5054604;27;99477;-27
2023/09/08 02:07:57;;;;;;;9.10;6.45;;;;;;;19.60;79.46;101733.59;5054616;27;98231;-27
2023/09/08 02:10:22;;;;;;;11.73;5.95;;;;;;;19.60;80.03;101720.72;5054454;27;97217;-27
2023/09/08 02:12:47;;;;;;;9.40;6.22;;;;;;;19.58;79.29;101727.34;5055122;27;96671;-27
2023/09/08 02:15:13;;;;;;;10.55;6.40;;;;;;;19.59;78.40;101726.31;5054837;27;98055;-28
2023/09/08 02:17:38;;;;;;;11.43;6.00;;;;;;;19.55;79.18;101727.63;5054587;27;97800;-27
2023/09/08 02:20:04;;;;;;;10.52;6.13;;;;;;;19.55;79.53;101722.13;5054915;27;96600;-27
2023/09/08 02:22:29;;;;;;;9.88;6.07;;;;;;;19.48;79.35;101714.38;5054547;27;96864;-27
2023/09/08 02:24:56;;;;;;;9.38;6.30;;;;;;;19.56;78.82;101718.34;5054331;27;98331;-27
2023/09/08 02:27:22;;;;;;;10.07;6.20;;;;;;;19.53;79.81;101733.22;5055859;27;99698;-27
2023/09/08 02:29:47;;;;;;;10.32;5.97;;;;;;;19.49;79.33;101716.13;5058369;27;96682;-27
2023/09/08 02:32:14;;;;;;;11.07;6.70;;;;;;;19.44;79.81;101707.41;5058715;27;96771;-27
2023/09/08 02:34:39;;;;;;;12.48;6.78;;;;;;;19.40;79.53;101716.03;5057376;27;99302;-27
2023/09/08 02:37:04;;;;;;;9.75;6.32;;;;;;;19.46;79.49;101723.75;5057737;27;97737;-27
2023/09/08 02:39:30;;;;;;;10.75;6.35;;;;;;;19.40;79.89;101716.94;5058036;27;96648;-27
2023/09/08 02:41:55;;;;;;;10.75;6.40;;;;;;;19.43;79.54;101722.16;5058116;27;97092;-28
2023/09/08 02:44:21;;;;;;;12.60;6.38;;;;;;;19.41;79.89;101723.28;5057742;27;97519;-27
2023/09/08 02:46:47;;;;;;;11.00;6.25;;;;;;;19.36;79.92;101718.19;5022671;27;101097;-28
2023/09/08 02:49:13;;;;;;;10.98;5.75;;;;;;;19.36;79.87;101723.69;5039545;27;96603;-27
2023/09/08 02:51:38;;;;;;;9.20;5.50;;;;;;;19.30;80.40;101713.19;5058242;27;96753;-28
2023/09/08 02:54:03;;;;;;;11.57;6.45;;;;;;;19.33;80.11;101714.81;5057737;27;98460;-29
2023/09/08 02:56:29;;;;;;;11.38;6.05;;;;;;;19.29;80.21;101708.72;5057676;27;97852;-27
2023/09/08 02:58:54;;;;;;;10.13;6.50;;;;;;;19.28;79.95;101704.22;5057419;27;96624;-28
2023/09/08 03:01:20;;;;;;;11.95;5.88;;;;;;;19.30;80.30;101724.19;5057878;27;96757;-27
2023/09/08 03:03:46;;;;;;;10.95;5.47;;;;;;;19.29;80.13;101716.97;5057205;27;99640;-28
2023/09/08 03:06:15;;;;;;;10.38;5.93;;;;;;;19.27;80.48;101710.72;5038891;27;100697;-27
2023/09/08 03:08:41;;;;;;;11.02;6.00;;;;;;;19.26;80.01;101714.47;5039356;27;96659;-27
2023/09/08 03:11:08;;;;;;;9.23;5.32;;;;;;;19.24;80.73;101705.50;5057932;27;96786;-27
2023/09/08 03:13:34;;;;;;;10.32;6.20;;;;;;;19.22;80.66;101702.00;5038854;27;100877;-27
2023/09/08 03:16:06;;;;;;;9.27;5.97;;;;;;;19.19;80.43;101697.63;5057713;27;97733;-27
2023/09/08 03:18:36;;;;;;;11.30;6.40;;;;;;;19.21;80.87;101709.38;5038915;27;96622;-28
2023/09/08 03:21:08;;;;;;;10.45;6.60;;;;;;;19.18;80.92;101701.38;5039054;27;96786;-28
2023/09/08 03:23:41;;;;;;;12.60;7.00;;;;;;;19.21;80.85;101711.22;5038160;27;101100;-28
2023/09/08 03:26:07;;;;;;;8.95;6.07;;;;;;;19.16;81.16;101703.38;5038980;27;101455;-27
2023/09/08 03:28:34;;;;;;;11.88;6.82;;;;;;;19.19;80.50;101707.75;5039172;27;96544;-28
2023/09/08 03:31:03;;;;;;;9.20;6.07;;;;;;;19.18;80.83;101706.00;5039055;27;96925;-31
2023/09/08 03:33:29;;;;;;;10.00;6.50;;;;;;;19.14;80.84;101697.16;5038711;27;101225;-27
2023/09/08 03:35:55;;;;;;;11.75;6.80;;;;;;;19.17;80.93;101704.25;5056717;27;99128;-27
2023/09/08 03:38:21;;;;;;;9.63;6.07;;;;;;;19.11;80.44;101697.41;5038197;27;96676;-28
2023/09/08 03:40:46;;;;;;;12.20;6.55;;;;;;;19.14;80.45;101696.25;5057280;27;96610;-27
2023/09/08 03:43:11;;;;;;;15.63;6.63;;;;;;;19.07;80.81;101693.19;5056786;27;97939;-28
2023/09/08 03:45:37;;;;;;;9.43;5.82;;;;;;;19.04;80.28;101686.09;5056774;27;99322;-27
2023/09/08 03:48:02;;;;;;;10.32;6.18;;;;;;;19.08;81.30;101695.78;5056547;27;96574;-27
2023/09/08 03:50:28;;;;;;;12.80;6.63;;;;;;;19.09;80.61;101697.53;5057025;27;96940;-27
2023/09/08 03:52:53;;;;;;;10.20;6.22;;;;;;;19.07;81.00;101690.44;5056648;27;99314;-27
2023/09/08 03:55:19;;;;;;;9.15;6.00;;;;;;;19.06;80.31;101697.78;5056481;27;98790;-27
2023/09/08 03:57:45;;;;;;;9.27;6.22;;;;;;;19.01;80.95;101688.19;5056737;27;98311;-29
2023/09/08 04:00:10;;;;;;;9.90;6.28;;;;;;;19.03;81.16;101694.44;5057425;27;96770;-28
2023/09/08 04:02:36;;;;;;;11.85;6.53;;;;;;;18.99;80.77;101691.06;5056213;27;100150;-27
2023/09/08 04:05:02;;;;;;;11.20;6.70;;;;;;;18.99;80.79;101690.19;5038574;27;99219;-27
2023/09/08 04:07:27;;;;;;;10.27;5.95;;;;;;;18.98;80.98;101693.94;5038486;27;96666;-27
2023/09/08 04:09:53;;;;;;;10.48;5.72;;;;;;;18.98;81.73;101688.47;5056999;27;96930;-27
2023/09/08 04:12:18;;;;;;;11.23;6.20;;;;;;;18.92;81.71;101688.97;5056060;27;98039;-27
2023/09/08 04:14:43;;;;;;;10.40;5.78;;;;;;;18.90;81.44;101683.59;5056575;27;97335;-27
2023/09/08 04:17:09;;;;;;;10.48;5.28;;;;;;;18.87;81.60;101690.22;5056601;27;96706;-28
2023/09/08 04:19:34;;;;;;;11.10;5.82;;;;;;;18.91;81.56;101690.84;5056283;27;96808;-28
2023/09/08 04:21:59;;;;;;;10.55;6.03;;;;;;;18.90;82.12;101691.81;5056571;27;97868;-28
2023/09/08 04:24:25;;;;;;;11.25;5.88;;;;;;;18.87;81.51;101697.56;5056366;27;97318;-27
2023/09/08 04:26:51;;;;;;;8.07;5.55;;;;;;;18.82;81.85;101695.22;5038155;27;96600;-27
2023/09/08 04:29:16;;;;;;;9.70;5.60;;;;;;;18.83;81.23;101687.84;5056910;27;96736;-27
2023/09/08 04:31:41;;;;;;;9.50;5.20;;;;;;;18.83;81.80;101702.47;5056066;27;97252;-28
2023/09/08 04:34:07;;;;;;;11.73;5.43;;;;;;;18.82;81.37;101695.22;5055817;27;99173;-27
2023/09/08 04:36:32;;;;;;;10.40;5.85;;;;;;;18.77;81.48;101691.97;5056017;27;96780;-28
2023/09/08 04:38:57;;;;;;;11.40;6.35;;;;;;;18.76;81.90;101690.25;5056279;27;96736;-27
2023/09/08 04:41:23;;;;;;;8.23;5.40;;;;;;;18.77;81.69;101691.13;5055857;27;97620;-27
2023/09/08 04:43:48;;;;;;;9.27;5.38;;;;;;;18.75;81.64;101684.84;5055646;27;98075;-27
2023/09/08 04:46:13;;;;;;;11.07;5.97;;;;;;;18.74;82.04;101685.84;5056087;27;96648;-27
2023/09/08 04:48:39;;;;;;;11.85;6.05;;;;;;;18.75;81.96;101698.56;5056229;27;96745;-27
2023/09/08 04:51:04;;;;;;;9.65;5.95;;;;;;;18.71;82.09;101700.72;5054578;27;98348;-27
2023/09/08 04:53:29;;;;;;;8.52;5.25;;;;;;;18.66;82.21;101690.09;5056022;27;99140;-27
2023/09/08 04:55:55;;;;;;;8.02;5.22;;;;;;;18.68;82.52;101704.53;5056229;27;96566;-28
2023/09/08 04:58:20;;;;;;;10.35;5.78;;;;;;;18.67;81.89;101697.31;5055850;27;96825;-27
2023/09/08 05:00:46;;;;;;;9.23;5.25;;;;;;;18.68;82.28;101709.16;5054603;27;99795;-27
2023/09/08 05:03:11;;;;;;;9.98;6.13;;;;;;;18.60;82.35;101696.09;5055496;27;97889;-28
2023/09/08 05:05:36;;;;;;;9.20;5.70;;;;;;;18.68;82.67;101703.69;5055285;27;97052;-27
2023/09/08 05:08:02;;;;;;;9.45;5.70;;;;;;;18.63;83.00;101704.06;5055028;27;96612;-27
2023/09/08 05:10:27;;;;;;;8.70;5.40;;;;;;;18.58;82.82;101695.34;5055624;27;97931;-27
2023/09/08 05:12:53;;;;;;;8.23;5.38;;;;;;;18.55;83.08;101697.47;5055283;27;99273;-27
2023/09/08 05:15:20;;;;;;;10.50;5.63;;;;;;;18.61;82.67;101707.94;5055422;27;96787;-27
2023/09/08 05:17:47;;;;;;;8.20;5.18;;;;;;;18.60;83.00;101706.19;5037640;27;96936;-27
2023/09/08 05:20:12;;;;;;;10.32;5.65;;;;;;;18.59;83.12;101710.81;5034701;27;101245;-29
2023/09/08 05:22:37;;;;;;;8.63;5.70;;;;;;;18.60;82.84;101711.69;5052799;27;98814;-28
2023/09/08 05:25:03;;;;;;;8.43;5.53;;;;;;;18.57;83.43;101711.94;5052898;27;96791;-28
2023/09/08 05:27:29;;;;;;;10.63;5.63;;;;;;;18.55;82.79;101711.19;5034288;27;96887;-35
2023/09/08 05:29:54;;;;;;;10.65;5.65;;;;;;;18.56;83.16;101711.03;5052982;27;99767;-27
2023/09/08 05:32:20;;;;;;;8.80;5.68;;;;;;;18.56;83.47;101710.19;5052831;27;98922;-27
2023/09/08 05:34:45;;;;;;;9.52;5.72;;;;;;;18.56;83.36;101713.78;5053111;27;97013;-30
2023/09/08 05:37:10;;;;;;;10.70;6.43;;;;;;;18.59;82.88;101724.53;5053201;27;96969;-28
2023/09/08 05:39:36;;;;;;;13.38;6.10;;;;;;;18.57;83.35;101707.31;5052313;27;99452;-28
2023/09/08 05:42:01;;;;;;;12.15;5.72;;;;;;;18.57;82.64;101711.94;5052190;27;99131;-32
2023/09/08 05:44:27;;;;;;;10.95;5.93;;;;;;;18.64;82.80;101729.66;5034100;27;97009;-31
2023/09/08 05:46:52;;;;;;;9.65;5.95;;;;;;;18.64;82.88;101727.78;5053255;27;97185;-28
2023/09/08 05:49:17;;;;;;;9.63;5.55;;;;;;;18.67;82.73;101726.66;5054492;27;98340;-27
2023/09/08 05:51:44;;;;;;;10.50;5.88;;;;;;;18.69;82.60;101727.41;5054942;27;98344;-27
2023/09/08 05:54:09;;;;;;;12.80;5.80;;;;;;;18.70;82.81;101726.38;5036719;27;96962;-27
2023/09/08 05:56:37;;;;;;;9.20;6.18;;;;;;;18.70;82.58;101718.16;5055253;27;96702;-27
2023/09/08 05:59:02;;;;;;;9.82;5.97;;;;;;;18.70;82.23;101725.53;5036208;27;101319;-28
2023/09/08 06:01:29;;;;;;;11.88;5.82;;;;;;;18.73;82.38;101720.63;5054501;27;97805;-27
2023/09/08 06:03:54;;;;;;;8.90;5.70;;;;;;;18.80;82.66;101737.53;5036653;27;96660;-27
2023/09/08 06:06:21;;;;;;;10.55;6.35;;;;;;;18.77;82.95;101724.94;5055475;27;96753;-27
2023/09/08 06:08:46;;;;;;;12.02;5.93;;;;;;;18.79;82.39;101733.91;5036269;27;101405;-27
2023/09/08 06:11:12;;;;;;;8.93;6.05;;;;;;;18.86;81.80;101735.16;5036194;27;100848;-27
2023/09/08 06:13:37;;;;;;;12.50;6.38;;;;;;;18.91;82.30;101740.25;5054205;27;96608;-28
2023/09/08 06:16:03;;;;;;;12.15;6.38;;;;;;;18.93;82.21;101741.00;5054802;27;96793;-27
2023/09/08 06:18:30;;;;;;;11.98;6.85;;;;;;;19.01;81.77;101743.97;5054695;27;97978;-27
2023/09/08 06:20:56;;;;;;;11.55;6.50;;;;;;;19.08;82.05;101753.44;5035951;27;97734;-27
2023/09/08 06:23:21;;;;;;;10.30;6.03;;;;;;;19.16;81.86;101751.94;5054648;27;96570;-27
2023/09/08 06:25:46;;;;;;;10.93;6.13;;;;;;;19.23;80.89;101745.81;5036432;27;96873;-28
2023/09/08 06:28:12;;;;;;;11.43;6.50;;;;;;;19.31;80.79;101745.19;5054467;27;97416;-27
2023/09/08 06:30:41;;;;;;;9.57;5.88;;;;;;;19.36;80.81;101734.66;5054621;27;97383;-27
2023/09/08 06:33:09;;;;;;;10.25;5.63;;;;;;;19.54;80.23;101743.22;5020088;27;96724;-28
2023/09/08 06:35:35;;;;;;;9.43;5.90;;;;;;;19.65;80.65;101742.31;5054676;27;96467;-27
2023/09/08 06:38:00;;;;;;;10.43;5.97;;;;;;;19.75;80.30;101737.78;5053723;27;99497;-27
2023/09/08 06:40:26;;;;;;;10.20;5.55;;;;;;;19.86;79.71;101736.88;5054397;27;97711;-27
2023/09/08 06:42:51;;;;;;;11.73;6.57;;;;;;;19.99;79.26;101750.41;5053697;27;96747;-27
2023/09/08 06:45:17;;;;;;;13.05;6.53;;;;;;;20.11;78.95;101747.44;5054612;27;96779;-27
2023/09/08 06:47:43;;;;;;;13.25;6.60;;;;;;;20.26;78.65;101747.09;5035913;27;101102;-28
2023/09/08 06:50:09;;;;;;;12.73;6.63;;;;;;;20.42;78.13;101749.38;5054193;27;97873;-28
2023/09/08 06:52:35;;;;;;;11.45;6.60;;;;;;;20.53;77.84;101739.16;5036236;27;96665;-27
2023/09/08 06:55:00;;;;;;;13.88;6.40;;;;;;;20.78;77.11;101750.72;5054976;27;96876;-28
2023/09/08 06:57:25;;;;;;;13.05;5.97;;;;;;;20.92;77.18;101752.22;5054210;27;97436;-27
2023/09/08 06:59:51;;;;;;;10.38;6.38;;;;;;;21.11;76.99;101746.78;5054012;27;97765;-27
2023/09/08 07:02:16;;;;;;;11.60;6.05;;;;;;;21.30;76.48;101747.84;5054039;27;96708;-27
2023/09/08 07:04:41;;;;;;;12.88;6.70;;;;;;;21.48;75.97;101751.69;5054073;27;96864;-28
2023/09/08 07:07:07;;;;;;;9.80;5.93;;;;;;;21.62;75.53;101754.00;5054163;27;97104;-28
2023/09/08 07:09:36;;;;;;;7.65;5.40;;;;;;;21.76;74.68;101752.72;5054097;27;97961;-28
2023/09/08 07:12:06;;;;;;;12.32;6.30;;;;;;;21.95;74.30;101750.94;5035657;27;96751;-27
2023/09/08 07:14:31;;;;;;;8.43;5.57;;;;;;;22.10;74.29;101741.19;5037494;27;96882;-28
2023/09/08 07:16:57;;;;;;;14.18;6.78;;;;;;;22.29;74.20;101747.75;5057199;27;99396;-28
2023/09/08 07:19:22;;;;;;;12.43;6.28;;;;;;;22.39;73.12;101743.91;5057593;27;97787;-31
2023/09/08 07:21:47;;;;;;;11.48;6.38;;;;;;;22.51;73.57;101752.03;5057354;27;96695;-27
2023/09/08 07:24:13;;;;;;;13.77;7.28;;;;;;;22.58;72.40;101745.75;5057023;27;96845;-27
2023/09/08 07:26:38;;;;;;;10.98;6.50;;;;;;;22.74;72.44;101739.59;5056583;27;97441;-27
2023/09/08 07:29:03;;;;;;;10.00;6.00;;;;;;;22.91;72.19;101754.47;5057168;27;97951;-27
2023/09/08 07:31:29;;;;;;;10.52;5.97;;;;;;;23.07;71.67;101756.59;5057751;27;96644;-29
2023/09/08 07:33:54;;;;;;;14.88;6.78;;;;;;;23.17;71.10;101759.28;5057436;27;97011;-27
2023/09/08 07:36:19;;;;;;;14.13;6.60;;;;;;;23.30;70.95;101757.91;5057031;27;97337;-27
2023/09/08 07:38:45;;;;;;;11.30;6.50;;;;;;;23.39;70.98;101746.94;5056895;27;97764;-27
2023/09/08 07:41:10;;;;;;;11.45;6.70;;;;;;;23.58;70.53;101759.78;5056765;27;97553;-28
2023/09/08 07:43:40;;;;;;;11.43;6.60;;;;;;;23.72;69.98;101750.91;5056809;27;96823;-27
2023/09/08 07:46:05;;;;;;;12.55;6.38;;;;;;;23.84;70.05;101744.13;5056659;27;99555;-28
2023/09/08 07:48:31;;;;;;;9.98;5.97;;;;;;;24.02;69.54;101746.00;5057021;27;97772;-27
2023/09/08 07:50:58;;;;;;;11.65;6.25;;;;;;;24.20;69.01;101749.63;5056740;27;96485;-29
2023/09/08 07:53:23;;;;;;;15.63;6.28;;;;;;;24.32;68.79;101750.22;5056972;27;96771;-27
2023/09/08 07:55:49;;;;;;;13.73;6.90;;;;;;;24.42;68.27;101745.44;5056609;27;97467;-27
2023/09/08 07:58:14;;;;;;;9.30;6.22;;;;;;;24.61;68.42;101751.81;5056709;27;97772;-27
2023/09/08 08:00:39;;;;;;;10.50;6.35;;;;;;;24.71;67.60;101744.25;5057135;27;96615;-27
2023/09/08 08:03:06;;;;;;;13.20;7.60;;;;;;;24.78;66.86;101748.94;5057013;27;96850;-28
2023/09/08 08:05:31;;;;;;;10.75;6.28;;;;;;;24.90;67.08;101737.56;5056524;27;99339;-27
2023/09/08 08:07:56;;;;;;;9.82;6.07;;;;;;;25.05;66.84;101744.22;5056964;27;97921;-27
2023/09/08 08:10:22;;;;;;;13.45;6.18;;;;;;;25.18;66.37;101744.63;5056823;27;97502;-27
2023/09/08 08:12:47;;;;;;;12.00;6.38;;;;;;;25.30;66.12;101738.78;5056823;27;96802;-27
2023/09/08 08:15:13;;;;;;;11.10;5.85;;;;;;;25.48;65.92;101738.63;5056051;27;97891;-28
2023/09/08 08:17:39;;;;;;;9.68;5.97;;;;;;;25.64;65.92;101738.66;5038362;27;97338;-27
2023/09/08 08:20:10;;;;;;;10.85;6.28;;;;;;;25.76;65.46;101741.97;5038103;27;96661;-27
2023/09/08 08:22:37;;;;;;;12.68;5.95;;;;;;;25.85;64.95;101752.91;5056613;27;96674;-28
2023/09/08 08:25:05;;;;;;;11.15;6.72;;;;;;;25.94;64.49;101745.50;5037242;27;99483;-27
2023/09/08 08:27:31;;;;;;;12.80;6.60;;;;;;;26.00;64.73;101752.25;5037808;27;100762;-27
2023/09/08 08:30:00;;;;;;;9.77;6.63;;;;;;;26.02;64.44;101742.69;5056673;27;96442;-27
2023/09/08 08:32:25;;;;;;;8.80;6.03;;;;;;;26.11;64.32;101742.72;5038510;27;96946;-27
2023/09/08 08:34:51;;;;;;;12.75;6.68;;;;;;;26.27;64.09;101742.69;5056196;27;98008;-27
2023/09/08 08:37:16;;;;;;;15.02;6.43;;;;;;;26.32;63.78;101748.59;5056108;27;97311;-27
2023/09/08 08:39:42;;;;;;;13.05;6.53;;;;;;;26.38;63.82;101741.44;5055679;27;97296;-28
2023/09/08 08:42:08;;;;;;;12.50;5.95;;;;;;;26.52;63.47;101748.19;5055416;27;96789;-27
2023/09/08 08:44:34;;;;;;;13.07;6.90;;;;;;;26.59;62.93;101738.13;5055747;27;99450;-27
2023/09/08 08:47:02;;;;;;;12.65;6.43;;;;;;;26.58;61.98;101748.38;5037602;27;99106;-27
2023/09/08 08:49:28;;;;;;;11.73;6.60;;;;;;;26.62;62.36;101743.31;5037762;27;96659;-27
2023/09/08 08:51:55;;;;;;;8.48;5.25;;;;;;;26.76;62.66;101758.41;5037698;27;96877;-27
2023/09/08 08:54:21;;;;;;;10.80;6.07;;;;;;;26.90;62.66;101750.16;5037338;27;101217;-28
2023/09/08 08:56:47;;;;;;;8.98;5.82;;;;;;;26.96;62.26;101747.72;5056368;27;97285;-27
2023/09/08 08:59:13;;;;;;;11.55;6.22;;;;;;;27.11;62.64;101760.69;5055757;27;96645;-27
2023/09/08 09:01:41;;;;;;;9.32;6.25;;;;;;;27.16;62.05;101751.78;5037538;27;96834;-27
2023/09/08 09:04:08;;;;;;;11.23;6.13;;;;;;;27.26;62.02;101752.47;5036781;27;101378;-27
2023/09/08 09:06:34;;;;;;;9.88;5.75;;;;;;;27.35;61.23;101758.84;5055209;27;97333;-27
2023/09/08 09:09:00;;;;;;;9.20;5.53;;;;;;;27.43;61.71;101753.22;5037431;27;96610;-29
2023/09/08 09:11:26;;;;;;;11.60;5.82;;;;;;;27.52;61.24;101756.84;5037373;27;96890;-28
2023/09/08 09:13:51;;;;;;;7.55;5.13;;;;;;;27.66;61.29;101752.41;5055244;27;99234;-28
2023/09/08 09:16:17;;;;;;;9.40;5.82;;;;;;;27.79;60.81;101765.69;5055648;27;98001;-27
2023/09/08 09:18:56;;;;;;;9.43;5.28;;;;;;;27.87;59.96;101755.41;5055689;27;96589;-28
2023/09/08 09:21:22;;;;;;;9.13;5.72;;;;;;;27.89;60.72;101744.94;5037717;27;96806;-29
2023/09/08 09:23:47;;;;;;;11.82;5.35;;;;;;;28.08;60.04;101760.28;5055752;27;97468;-27
2023/09/08 09:26:24;;;;;;;11.52;5.18;;;;;;;28.12;58.81;101760.75;5055155;27;99689;-27
2023/09/08 09:28:51;;;;;;;10.52;5.15;;;;;;;28.13;58.84;101757.78;5036782;27;96754;-27
2023/09/08 09:31:17;;;;;;;8.80;5.30;;;;;;;28.19;58.75;101756.16;5037230;27;97013;-27
2023/09/08 09:33:43;;;;;;;8.68;5.50;;;;;;;28.31;58.53;101760.22;5054764;27;99142;-27
2023/09/08 09:36:09;;;;;;;8.00;5.05;;;;;;;28.32;58.14;101753.59;5054813;27;97283;-27
2023/09/08 09:38:34;;;;;;;7.75;4.35;;;;;;;28.51;58.49;101757.78;5055249;27;96912;-27
2023/09/08 09:41:00;;;;;;;6.93;3.92;;;;;;;28.73;58.47;101750.38;5036788;27;96951;-27
2023/09/08 09:43:28;;;;;;;9.23;6.32;;;;;;;28.88;57.37;101755.09;5054647;27;97475;-27
2023/09/08 09:45:54;;;;;;;9.40;4.80;;;;;;;28.93;57.64;101747.88;5037118;27;98863;-28
2023/09/08 09:48:23;;;;;;;9.57;4.75;;;;;;;29.06;57.24;101746.34;5055181;27;97261;-29
2023/09/08 09:50:49;;;;;;;10.38;5.43;;;;;;;29.23;56.99;101755.38;5055354;27;96742;-28
2023/09/08 09:53:16;;;;;;;7.50;4.63;;;;;;;29.18;56.12;101748.47;5054166;27;98883;-27
2023/09/08 09:55:43;;;;;;;7.75;4.82;;;;;;;29.27;56.75;101746.44;5036589;27;100977;-27
2023/09/08 09:58:14;;;;;;;8.63;5.22;;;;;;;29.39;55.59;101741.16;5036760;27;96605;-29
2023/09/08 10:00:41;;;;;;;7.63;4.30;;;;;;;29.52;55.53;101746.91;5055267;27;96606;-28
2023/09/08 10:03:08;;;;;;;6.45;4.50;;;;;;;29.60;55.40;101741.22;5036448;27;101206;-28
2023/09/08 10:05:33;;;;;;;8.38;4.35;;;;;;;29.80;55.63;101741.44;5036400;27;101294;-27
2023/09/08 10:07:59;;;;;;;6.03;4.03;;;;;;;29.92;55.00;101738.13;5054842;27;96489;-27
2023/09/08 10:10:28;;;;;;;6.22;3.97;;;;;;;30.08;54.22;101745.34;5037018;27;96881;-28
2023/09/08 10:12:56;;;;;;;5.57;3.92;;;;;;;30.06;54.13;101757.59;5036326;27;100866;-27
2023/09/08 10:15:24;;;;;;;6.15;3.60;;;;;;;30.18;53.98;101745.88;5035954;27;100544;-29
2023/09/08 10:17:55;;;;;;;6.05;3.55;;;;;;;30.36;52.10;101748.19;5035936;27;96697;-28
2023/09/08 10:20:23;;;;;;;5.93;3.53;;;;;;;30.53;52.99;101751.53;5036456;27;97651;-28
2023/09/08 10:22:59;;;;;;;7.15;3.30;;;;;;;30.63;53.18;101746.41;5036275;27;100921;-27
2023/09/08 10:25:29;;;;;;;5.15;3.40;;;;;;;30.77;52.18;101741.78;5054850;27;97465;-27
2023/09/08 10:27:55;;;;;;;5.07;3.25;;;;;;;30.77;52.74;101745.44;5036429;27;96640;-27
2023/09/08 10:30:21;;;;;;;5.35;3.72;;;;;;;30.84;52.39;101748.28;5036358;27;97023;-27
2023/09/08 10:32:49;;;;;;;5.68;3.55;;;;;;;31.00;52.50;101741.50;5036040;27;100912;-27
2023/09/08 10:35:17;;;;;;;6.78;3.45;;;;;;;31.09;52.07;101748.66;5036264;27;98891;-28
2023/09/08 10:37:42;;;;;;;6.82;3.25;;;;;;;31.15;51.64;101744.13;5036205;27;96862;-27
2023/09/08 10:40:21;;;;;;;4.55;2.92;;;;;;;31.31;51.37;101744.63;5054625;27;98402;-27
2023/09/08 10:42:46;;;;;;;5.18;3.45;;;;;;;31.32;51.76;101735.19;5052848;27;99809;-27
2023/09/08 10:45:20;;;;;;;4.93;3.08;;;;;;;31.30;48.65;101740.13;5054358;27;97810;-28
2023/09/08 10:47:45;;;;;;;5.10;3.13;;;;;;;31.29;50.41;101741.19;5036562;27;96716;-28
2023/09/08 10:50:17;;;;;;;6.67;3.30;;;;;;;31.29;50.61;101729.97;5058204;27;96813;-27
2023/09/08 10:52:43;;;;;;;6.32;3.22;;;;;;;31.36;50.55;101726.34;5039169;27;101562;-28
2023/09/08 10:55:08;;;;;;;5.72;3.17;;;;;;;31.42;49.99;101733.94;5057605;27;98584;-28
2023/09/08 10:57:34;;;;;;;8.65;3.30;;;;;;;31.45;50.13;101733.50;5058114;27;96451;-29
2023/09/08 11:00:11;;;;;;;6.25;3.03;;;;;;;31.59;50.43;101743.69;5058304;27;96767;-29
2023/09/08 11:02:42;;;;;;;6.03;3.50;;;;;;;31.65;49.58;101734.41;5057673;27;98274;-28
2023/09/08 11:05:13;;;;;;;5.07;3.45;;;;;;;31.79;47.87;101731.63;5039149;27;101211;-27
2023/09/08 11:07:40;;;;;;;5.15;3.33;;;;;;;31.79;50.21;101742.84;5038588;27;96752;-28
2023/09/08 11:10:07;;;;;;;4.78;2.97;;;;;;;31.95;49.40;101740.53;5039338;27;96882;-27
2023/09/08 11:12:32;;;;;;;5.55;2.97;;;;;;;32.10;49.71;101740.28;5038797;27;103912;-27
2023/09/08 11:15:00;;;;;;;5.60;3.05;;;;;;;32.05;48.97;101733.63;5057196;27;98168;-27